Time;durP1;ratioP1;P1;durP2;ratioP2;P2;SDS_P1;SDS_P2;PMS_P1;PMS_P2;Temp;Humidity;BMP_temperature;BMP_pressure;BME280_temperature;BME280_humidity;BME280_pressure;Samples;Min_cycle;Max_cycle;Signal;HPM_P1;HPM_P2
2021/04/17 00:00:14;;;;;;;4.67;2.27;;;8.70;1.00;;;;;;5070668;28;20180;-58
2021/04/17 00:02:40;;;;;;;3.17;2.93;;;8.70;1.00;;;;;;5069570;28;20259;-59
2021/04/17 00:05:07;;;;;;;2.70;2.50;;;8.60;1.00;;;;;;5069665;28;20961;-58
2021/04/17 00:07:32;;;;;;;2.60;2.00;;;8.50;1.00;;;;;;5064983;28;20191;-59
2021/04/17 00:09:58;;;;;;;5.77;2.63;;;8.40;1.00;;;;;;5065626;28;20929;-59
2021/04/17 00:12:23;;;;;;;3.47;2.60;;;8.50;1.00;;;;;;5069038;28;20193;-59
2021/04/17 00:14:51;;;;;;;5.70;2.40;;;8.50;1.00;;;;;;5069694;28;20183;-60
2021/04/17 00:17:18;;;;;;;4.47;2.30;;;8.50;1.00;;;;;;5069687;28;20252;-58
2021/04/17 00:19:46;;;;;;;4.47;2.83;;;8.50;1.00;;;;;;5069504;28;20460;-59
2021/04/17 00:22:12;;;;;;;3.27;2.60;;;8.40;1.00;;;;;;5068902;28;20457;-59
2021/04/17 00:24:38;;;;;;;2.60;2.40;;;8.50;1.00;;;;;;5067589;28;20853;-58
2021/04/17 00:27:05;;;;;;;4.40;2.50;;;8.50;1.00;;;;;;5069861;28;20451;-60
2021/04/17 00:29:32;;;;;;;6.40;2.60;;;8.50;1.00;;;;;;5070089;28;20226;-58
2021/04/17 00:31:59;;;;;;;3.10;2.60;;;8.50;1.00;;;;;;5069088;28;20964;-59
2021/04/17 00:34:25;;;;;;;3.63;2.00;;;8.50;1.00;;;;;;5069764;28;20445;-57
2021/04/17 00:36:50;;;;;;;2.13;1.90;;;8.50;1.00;;;;;;5069097;28;20438;-57
2021/04/17 00:39:16;;;;;;;5.93;2.73;;;10.90;1.00;;;;;;5067938;28;20451;-59
2021/04/17 00:41:41;;;;;;;3.77;3.27;;;8.50;1.00;;;;;;5069407;28;20239;-58
2021/04/17 00:44:07;;;;;;;3.43;2.00;;;8.40;1.00;;;;;;5070019;28;20192;-59
2021/04/17 00:46:33;;;;;;;2.57;2.10;;;8.40;1.00;;;;;;5064972;28;20898;-58
2021/04/17 00:48:58;;;;;;;3.20;2.60;;;8.40;1.00;;;;;;5068182;28;20287;-57
2021/04/17 00:51:25;;;;;;;3.80;2.83;;;8.40;1.00;;;;;;5070008;28;20185;-58
2021/04/17 00:53:50;;;;;;;4.43;2.07;;;8.40;1.00;;;;;;5065668;28;20191;-59
2021/04/17 00:56:19;;;;;;;4.27;2.83;;;8.50;1.00;;;;;;5067109;28;20441;-57
2021/04/17 00:58:47;;;;;;;8.97;4.80;;;8.40;1.00;;;;;;5071575;28;20472;-59
2021/04/17 01:01:13;;;;;;;4.23;1.90;;;8.30;1.00;;;;;;5069908;28;20440;-59
2021/04/17 01:03:46;;;;;;;4.70;2.27;;;8.30;1.00;;;;;;5068760;28;20437;-59
2021/04/17 01:06:24;;;;;;;3.57;1.93;;;8.30;1.00;;;;;;5070051;28;20459;-59
2021/04/17 01:09:12;;;;;;;4.30;2.20;;;8.30;1.00;;;;;;5066712;28;20494;-59
2021/04/17 01:11:44;;;;;;;4.27;2.40;;;8.30;1.00;;;;;;5068755;28;20437;-59
2021/04/17 01:14:10;;;;;;;2.63;1.93;;;8.30;1.00;;;;;;5069291;28;20450;-60
2021/04/17 01:16:36;;;;;;;5.27;2.77;;;8.30;1.00;;;;;;5069024;28;20491;-59
2021/04/17 01:19:07;;;;;;;4.90;2.40;;;8.10;1.00;;;;;;5067107;28;20434;-57
2021/04/17 01:21:34;;;;;;;3.60;2.63;;;8.20;1.00;;;;;;5069831;28;20475;-57
2021/04/17 01:24:19;;;;;;;4.23;2.33;;;8.10;1.00;;;;;;5067416;28;20446;-59
2021/04/17 01:26:45;;;;;;;2.90;2.17;;;8.10;1.00;;;;;;5068612;28;20780;-59
2021/04/17 01:29:12;;;;;;;6.40;2.30;;;8.10;1.00;;;;;;5068946;28;20560;-58
2021/04/17 01:31:40;;;;;;;3.53;2.10;;;8.00;1.00;;;;;;5068262;28;20441;-57
2021/04/17 01:34:07;;;;;;;4.03;1.90;;;8.10;1.00;;;;;;5068760;28;20490;-57
2021/04/17 01:36:35;;;;;;;4.70;2.43;;;8.00;1.00;;;;;;5072278;28;20434;-57
2021/04/17 01:39:11;;;;;;;5.80;1.80;;;8.00;1.00;;;;;;5069459;28;20730;-57
2021/04/17 01:41:44;;;;;;;3.03;1.20;;;8.00;1.00;;;;;;5069426;28;20471;-57
2021/04/17 01:44:26;;;;;;;4.00;2.10;;;8.00;1.00;;;;;;5068716;28;20882;-58
2021/04/17 01:46:59;;;;;;;3.00;1.73;;;8.00;1.00;;;;;;5068224;28;20433;-58
2021/04/17 01:49:27;;;;;;;2.40;1.13;;;8.00;1.00;;;;;;5072039;28;21023;-58
2021/04/17 01:51:55;;;;;;;3.03;1.77;;;8.00;1.00;;;;;;5072799;28;20441;-57
2021/04/17 01:54:30;;;;;;;7.60;2.53;;;8.00;1.00;;;;;;5067090;28;20494;-59
2021/04/17 01:57:03;;;;;;;2.20;1.80;;;8.00;1.00;;;;;;5070293;28;20437;-57
2021/04/17 01:59:33;;;;;;;3.73;1.80;;;7.80;1.00;;;;;;5072798;28;20449;-58
2021/04/17 02:01:59;;;;;;;2.67;1.97;;;7.70;1.00;;;;;;5072884;28;20445;-56
2021/04/17 02:04:24;;;;;;;4.53;2.30;;;7.70;1.00;;;;;;5071857;28;20441;-57
2021/04/17 02:06:50;;;;;;;3.87;2.00;;;7.80;1.00;;;;;;5069075;28;20191;-58
2021/04/17 02:09:16;;;;;;;3.13;1.87;;;7.90;1.00;;;;;;5072226;28;20298;-57
2021/04/17 02:11:41;;;;;;;1.90;1.70;;;7.80;1.00;;;;;;5072340;28;20250;-59
2021/04/17 02:14:07;;;;;;;4.80;2.10;;;7.80;1.00;;;;;;5072393;28;20180;-59
2021/04/17 02:16:35;;;;;;;3.93;1.97;;;7.60;1.00;;;;;;5074363;28;20184;-59
2021/04/17 02:19:09;;;;;;;2.83;1.23;;;7.40;1.00;;;;;;5072392;28;20438;-57
2021/04/17 02:21:42;;;;;;;4.63;2.40;;;7.10;1.00;;;;;;5070376;28;20434;-59
2021/04/17 02:24:08;;;;;;;3.23;2.10;;;10.10;1.00;;;;;;5071277;28;20444;-57
2021/04/17 02:26:36;;;;;;;4.57;1.40;;;7.10;1.00;;;;;;5072321;28;20440;-57
2021/04/17 02:29:02;;;;;;;3.60;2.10;;;7.10;1.00;;;;;;5069968;28;20473;-57
2021/04/17 02:31:28;;;;;;;3.63;1.93;;;7.30;1.00;;;;;;5071149;28;20452;-56
2021/04/17 02:33:55;;;;;;;4.13;3.17;;;7.20;1.00;;;;;;5072266;28;20441;-59
2021/04/17 02:36:21;;;;;;;1.87;1.60;;;7.00;1.00;;;;;;5072359;28;20434;-57
2021/04/17 02:38:46;;;;;;;6.20;2.33;;;7.00;1.00;;;;;;5071700;28;21003;-57
2021/04/17 02:41:13;;;;;;;2.43;1.80;;;6.90;1.00;;;;;;5071507;28;20449;-57
2021/04/17 02:43:41;;;;;;;3.50;1.70;;;6.90;1.00;;;;;;5072040;28;20352;-57
2021/04/17 02:46:06;;;;;;;2.70;1.80;;;6.80;1.00;;;;;;5070523;28;20445;-59
2021/04/17 02:48:32;;;;;;;3.30;2.20;;;6.80;1.00;;;;;;5069605;28;20455;-58
2021/04/17 02:50:57;;;;;;;2.80;1.80;;;6.90;1.00;;;;;;5070641;28;20188;-57
2021/04/17 02:53:23;;;;;;;2.60;1.67;;;6.90;1.00;;;;;;5071495;28;20263;-57
2021/04/17 02:55:48;;;;;;;2.60;2.17;;;6.90;1.00;;;;;;5072207;28;20187;-58
2021/04/17 02:58:14;;;;;;;5.80;2.40;;;6.90;1.00;;;;;;5071199;28;20548;-57
2021/04/17 03:00:39;;;;;;;3.40;2.27;;;6.80;1.00;;;;;;5071870;28;20612;-56
2021/04/17 03:03:05;;;;;;;4.03;2.53;;;6.60;1.00;;;;;;5071301;28;20191;-58
2021/04/17 03:05:31;;;;;;;4.30;3.03;;;6.60;1.00;;;;;;5071261;28;20183;-58
2021/04/17 03:07:58;;;;;;;6.30;2.57;;;6.70;1.00;;;;;;5074915;28;20344;-58
2021/04/17 03:10:23;;;;;;;3.87;2.87;;;6.70;1.00;;;;;;5071178;28;20206;-58
2021/04/17 03:12:49;;;;;;;5.70;3.30;;;6.70;1.00;;;;;;5071392;28;20445;-58
2021/04/17 03:15:15;;;;;;;2.60;2.20;;;6.60;1.00;;;;;;5070998;28;20179;-58
2021/04/17 03:17:40;;;;;;;5.93;2.80;;;6.60;1.00;;;;;;5071433;28;20183;-57
2021/04/17 03:20:08;;;;;;;6.60;2.90;;;6.50;1.00;;;;;;5069936;28;20308;-56
2021/04/17 03:22:35;;;;;;;3.40;3.07;;;6.50;1.00;;;;;;5067566;28;20277;-58
2021/04/17 03:25:07;;;;;;;4.20;3.00;;;6.50;1.00;;;;;;5069392;28;20586;-57
2021/04/17 03:27:33;;;;;;;7.83;3.10;;;6.50;1.00;;;;;;5069819;28;20466;-58
2021/04/17 03:29:59;;;;;;;3.80;3.40;;;6.40;1.00;;;;;;5070139;28;20834;-56
2021/04/17 03:32:24;;;;;;;4.30;2.77;;;6.20;1.00;;;;;;5070749;28;20795;-57
2021/04/17 03:34:50;;;;;;;4.27;3.33;;;6.20;1.00;;;;;;5070497;28;20670;-57
2021/04/17 03:37:16;;;;;;;6.00;2.63;;;6.40;1.00;;;;;;5070210;28;20251;-57
2021/04/17 03:39:41;;;;;;;5.20;2.50;;;6.40;1.00;;;;;;5067659;28;20191;-58
2021/04/17 03:42:07;;;;;;;11.07;2.60;;;6.30;1.00;;;;;;5065634;28;20553;-59
2021/04/17 03:44:33;;;;;;;5.07;2.63;;;6.20;1.00;;;;;;5068683;28;20653;-57
2021/04/17 03:46:58;;;;;;;4.10;2.73;;;6.40;1.00;;;;;;5069241;28;20528;-57
2021/04/17 03:49:24;;;;;;;5.33;2.40;;;6.40;1.00;;;;;;5069969;28;20207;-57
2021/04/17 03:51:50;;;;;;;3.10;2.80;;;6.40;1.00;;;;;;5069377;28;20282;-57
2021/04/17 03:54:16;;;;;;;3.70;2.50;;;6.40;1.00;;;;;;5069780;28;20445;-57
2021/04/17 03:56:41;;;;;;;3.93;2.70;;;6.40;1.00;;;;;;5070079;28;20253;-59
2021/04/17 03:59:07;;;;;;;3.70;2.07;;;6.30;1.00;;;;;;5070113;28;20233;-57
2021/04/17 04:01:32;;;;;;;3.70;3.10;;;6.30;1.00;;;;;;5069511;28;20533;-59
2021/04/17 04:03:58;;;;;;;4.37;2.87;;;6.30;1.00;;;;;;5070611;28;20191;-58
2021/04/17 04:06:27;;;;;;;5.83;2.57;;;6.30;1.00;;;;;;5070492;28;20183;-57
2021/04/17 04:08:54;;;;;;;4.40;2.67;;;6.20;1.00;;;;;;5069652;28;20896;-59
2021/04/17 04:11:20;;;;;;;3.87;2.70;;;6.10;1.00;;;;;;5068443;28;20937;-59
2021/04/17 04:13:46;;;;;;;5.87;2.50;;;6.10;1.00;;;;;;5066006;28;20442;-59
2021/04/17 04:16:11;;;;;;;2.67;2.17;;;6.30;1.00;;;;;;5064730;28;20184;-57
2021/04/17 04:18:37;;;;;;;6.73;2.90;;;6.30;1.00;;;;;;5069808;28;20573;-58
2021/04/17 04:21:03;;;;;;;4.50;2.67;;;;;;;;;;5070569;28;20573;-58
2021/04/17 04:23:28;;;;;;;6.83;3.33;;;6.30;1.00;;;;;;5069490;28;20191;-57
2021/04/17 04:25:54;;;;;;;5.33;2.63;;;6.20;1.00;;;;;;5070209;28;20430;-58
2021/04/17 04:28:20;;;;;;;4.10;2.77;;;6.10;1.00;;;;;;5064836;28;20356;-58
2021/04/17 04:30:46;;;;;;;3.73;2.50;;;6.10;1.00;;;;;;5070194;28;20202;-58
2021/04/17 04:33:12;;;;;;;4.80;3.17;;;6.10;1.00;;;;;;5070174;28;20199;-57
2021/04/17 04:35:38;;;;;;;2.60;2.10;;;6.00;1.00;;;;;;5069474;28;20448;-58
2021/04/17 04:38:03;;;;;;;4.07;3.00;;;6.10;1.00;;;;;;5069731;28;20218;-58
2021/04/17 04:40:29;;;;;;;9.80;3.10;;;6.10;1.00;;;;;;5067904;28;20238;-57
2021/04/17 04:42:54;;;;;;;7.90;3.17;;;6.10;1.00;;;;;;5066138;28;20998;-58
2021/04/17 04:45:20;;;;;;;3.87;2.40;;;6.10;1.00;;;;;;5068115;28;20270;-59
2021/04/17 04:47:46;;;;;;;4.47;3.23;;;6.20;1.00;;;;;;5068797;28;20278;-58
2021/04/17 04:50:12;;;;;;;5.50;3.03;;;6.30;1.00;;;;;;5068661;28;20556;-58
2021/04/17 04:52:38;;;;;;;5.20;2.43;;;6.30;1.00;;;;;;5068575;28;20246;-58
2021/04/17 04:55:04;;;;;;;4.00;2.67;;;6.50;1.00;;;;;;5069159;28;20799;-59
2021/04/17 04:57:30;;;;;;;5.20;3.27;;;6.50;1.00;;;;;;5068635;28;20203;-58
2021/04/17 04:59:55;;;;;;;4.70;3.07;;;6.50;1.00;;;;;;5069797;28;20491;-57
2021/04/17 05:02:21;;;;;;;4.03;2.90;;;6.00;1.00;;;;;;5069759;28;20187;-57
2021/04/17 05:04:47;;;;;;;5.63;2.80;;;6.50;1.00;;;;;;5070089;28;20187;-58
2021/04/17 05:07:12;;;;;;;5.70;3.17;;;6.60;1.00;;;;;;5069172;28;20251;-59
2021/04/17 05:09:38;;;;;;;5.40;3.47;;;6.50;1.00;;;;;;5068237;28;20745;-58
2021/04/17 05:12:05;;;;;;;3.73;3.23;;;6.50;1.00;;;;;;5064690;28;20233;-57
2021/04/17 05:14:30;;;;;;;4.90;3.90;;;6.50;1.00;;;;;;5067998;28;20263;-59
2021/04/17 05:16:56;;;;;;;5.30;3.20;;;6.60;1.00;;;;;;5069343;28;20558;-58
2021/04/17 05:19:21;;;;;;;5.90;3.67;;;6.60;1.00;;;;;;5068690;28;20179;-59
2021/04/17 05:21:47;;;;;;;4.80;3.43;;;6.70;1.00;;;;;;5070229;28;20187;-58
2021/04/17 05:24:12;;;;;;;6.13;3.60;;;6.80;1.00;;;;;;5072668;28;20207;-58
2021/04/17 05:26:38;;;;;;;4.10;2.80;;;6.70;1.00;;;;;;5073404;28;20191;-57
2021/04/17 05:29:04;;;;;;;7.83;4.23;;;6.60;1.00;;;;;;5068767;28;20711;-57
2021/04/17 05:31:30;;;;;;;3.97;2.67;;;6.40;1.00;;;;;;5068019;28;20281;-57
2021/04/17 05:33:56;;;;;;;7.93;3.03;;;6.50;1.00;;;;;;5072073;28;20445;-58
2021/04/17 05:36:22;;;;;;;3.50;2.80;;;6.60;1.00;;;;;;5071971;28;20187;-59
2021/04/17 05:38:48;;;;;;;6.33;3.23;;;6.50;1.00;;;;;;5072720;28;20198;-58
2021/04/17 05:41:13;;;;;;;4.57;3.30;;;6.50;1.00;;;;;;5071484;28;20444;-58
2021/04/17 05:43:40;;;;;;;3.87;2.67;;;6.40;1.00;;;;;;5072907;28;20939;-58
2021/04/17 05:46:05;;;;;;;7.03;3.40;;;6.50;1.00;;;;;;5068689;28;20187;-57
2021/04/17 05:48:31;;;;;;;7.77;3.50;;;6.50;1.00;;;;;;5069505;28;21033;-58
2021/04/17 05:50:57;;;;;;;5.60;2.83;;;6.40;1.00;;;;;;5073203;28;20198;-58
2021/04/17 05:53:24;;;;;;;3.37;2.90;;;6.40;1.00;;;;;;5072149;28;20217;-58
2021/04/17 05:55:49;;;;;;;6.63;3.30;;;6.60;1.00;;;;;;5072577;28;20903;-57
2021/04/17 05:58:15;;;;;;;5.23;2.17;;;6.60;1.00;;;;;;5072454;28;20512;-58
2021/04/17 06:00:40;;;;;;;4.67;2.67;;;6.60;1.00;;;;;;5072208;28;20271;-57
2021/04/17 06:03:06;;;;;;;5.40;2.43;;;;;;;;;;5072572;28;20206;-58
2021/04/17 06:05:32;;;;;;;12.73;3.00;;;5.20;1.00;;;;;;5092480;28;20218;-58
2021/04/17 06:07:58;;;;;;;3.57;2.70;;;6.80;1.00;;;;;;5087407;28;20452;-60
2021/04/17 06:10:23;;;;;;;7.03;3.00;;;6.80;1.00;;;;;;5070347;28;20231;-59
2021/04/17 06:12:49;;;;;;;4.53;2.93;;;6.90;1.00;;;;;;5071263;28;20641;-57
2021/04/17 06:15:15;;;;;;;4.37;3.70;;;6.90;1.00;;;;;;5071104;28;20190;-58
2021/04/17 06:17:41;;;;;;;4.50;3.27;;;7.10;1.00;;;;;;5072175;28;20440;-59
2021/04/17 06:20:07;;;;;;;11.30;3.57;;;7.20;1.00;;;;;;5070888;28;20911;-57
2021/04/17 06:22:33;;;;;;;3.93;3.00;;;7.20;1.00;;;;;;5066681;28;20578;-57
2021/04/17 06:24:59;;;;;;;3.60;2.60;;;7.30;1.00;;;;;;5074233;28;20450;-58
2021/04/17 06:27:24;;;;;;;4.10;3.13;;;7.40;1.00;;;;;;5072017;28;20250;-57
2021/04/17 06:29:50;;;;;;;3.20;2.87;;;7.50;1.00;;;;;;5072225;28;20225;-58
2021/04/17 06:32:16;;;;;;;5.97;3.33;;;7.70;1.00;;;;;;5071389;28;20196;-58
2021/04/17 06:34:41;;;;;;;4.67;3.10;;;7.80;1.00;;;;;;5070933;28;20633;-57
2021/04/17 06:37:07;;;;;;;3.20;2.70;;;7.80;1.00;;;;;;5070523;28;20188;-57
2021/04/17 06:39:32;;;;;;;4.63;3.40;;;8.00;1.00;;;;;;5071696;28;20275;-57
2021/04/17 06:42:01;;;;;;;5.20;2.40;;;8.10;1.00;;;;;;5071823;28;20188;-57
2021/04/17 06:44:28;;;;;;;6.27;3.20;;;8.20;1.00;;;;;;5069419;28;20183;-59
2021/04/17 06:46:54;;;;;;;5.57;2.87;;;8.30;1.00;;;;;;5068243;28;20442;-59
2021/04/17 06:49:21;;;;;;;3.10;2.30;;;8.40;1.00;;;;;;5071380;28;21350;-58
2021/04/17 06:51:48;;;;;;;2.63;2.17;;;8.20;1.00;;;;;;5070468;28;20444;-59
2021/04/17 06:54:19;;;;;;;4.57;2.33;;;8.20;1.00;;;;;;5071720;28;20454;-56
2021/04/17 06:56:47;;;;;;;6.70;3.10;;;7.80;1.00;;;;;;5069685;28;20429;-58
2021/04/17 06:59:14;;;;;;;3.60;2.40;;;7.90;1.00;;;;;;5068984;28;20453;-57
2021/04/17 07:01:39;;;;;;;3.13;1.93;;;7.80;1.00;;;;;;5069757;28;20464;-57
2021/04/17 07:04:06;;;;;;;3.00;2.10;;;7.80;1.00;;;;;;5071498;28;20442;-58
2021/04/17 07:06:32;;;;;;;3.03;2.70;;;8.00;1.00;;;;;;5077056;28;20206;-57
2021/04/17 07:08:57;;;;;;;3.33;2.03;;;8.00;1.00;;;;;;5068707;28;20468;-56
2021/04/17 07:11:23;;;;;;;4.50;2.40;;;7.90;1.00;;;;;;5067398;28;20434;-58
2021/04/17 07:14:08;;;;;;;2.70;2.30;;;8.00;1.00;;;;;;5068949;28;20275;-58
2021/04/17 07:16:54;;;;;;;5.07;2.67;;;8.10;1.00;;;;;;5071388;28;20180;-58
2021/04/17 07:19:21;;;;;;;3.10;2.30;;;7.70;1.00;;;;;;5069212;28;20429;-58
2021/04/17 07:21:47;;;;;;;2.77;2.30;;;7.70;1.00;;;;;;5071380;28;20430;-58
2021/04/17 07:24:24;;;;;;;3.93;2.53;;;7.90;1.00;;;;;;5071220;28;20525;-57
2021/04/17 07:26:49;;;;;;;3.40;2.30;;;7.80;1.00;;;;;;5070790;28;20261;-58
2021/04/17 07:29:15;;;;;;;3.27;2.30;;;8.00;1.00;;;;;;5068462;28;20563;-58
2021/04/17 07:31:52;;;;;;;5.07;2.27;;;8.20;1.00;;;;;;5069112;28;20171;-57
2021/04/17 07:34:24;;;;;;;3.00;2.40;;;8.20;1.00;;;;;;5070040;28;20266;-58
2021/04/17 07:36:55;;;;;;;2.10;1.90;;;8.00;1.00;;;;;;5070906;28;20526;-57
2021/04/17 07:39:36;;;;;;;3.03;2.10;;;8.10;1.00;;;;;;5071253;28;20438;-58
2021/04/17 07:42:07;;;;;;;3.00;2.40;;;8.20;1.00;;;;;;5070224;28;20541;-58
2021/04/17 07:44:39;;;;;;;2.73;2.17;;;8.00;1.00;;;;;;5070276;28;20442;-58
2021/04/17 07:47:06;;;;;;;3.53;1.87;;;8.10;1.00;;;;;;5069477;28;20445;-57
2021/04/17 07:49:32;;;;;;;7.00;2.80;;;8.10;1.00;;;;;;5069769;28;20463;-59
2021/04/17 07:52:10;;;;;;;6.83;2.47;;;8.40;1.00;;;;;;5070892;28;20441;-58
2021/04/17 07:55:00;;;;;;;3.53;2.13;;;8.20;1.00;;;;;;5070630;28;20446;-57
2021/04/17 07:57:42;;;;;;;4.43;2.03;;;8.40;1.00;;;;;;5059943;28;20458;-58
2021/04/17 08:00:11;;;;;;;7.50;2.63;;;8.40;1.00;;;;;;5070458;28;20438;-59
2021/04/17 08:02:38;;;;;;;1.97;1.77;;;8.40;1.00;;;;;;5070178;28;20488;-58
2021/04/17 08:05:05;;;;;;;5.23;2.50;;;8.40;1.00;;;;;;5070674;28;20453;-58
2021/04/17 08:07:35;;;;;;;2.93;1.97;;;8.60;1.00;;;;;;5070461;28;20446;-59
2021/04/17 08:10:02;;;;;;;3.30;2.20;;;8.60;1.00;;;;;;5068841;28;20566;-59
2021/04/17 08:12:28;;;;;;;3.23;2.27;;;8.50;1.00;;;;;;5069284;28;20488;-57
2021/04/17 08:14:54;;;;;;;2.70;2.07;;;8.20;1.00;;;;;;5069516;28;20473;-58
2021/04/17 08:17:20;;;;;;;5.30;2.13;;;8.20;1.00;;;;;;5071086;28;20565;-57
2021/04/17 08:19:46;;;;;;;2.53;1.80;;;8.20;1.00;;;;;;5070207;28;20452;-58
2021/04/17 08:22:12;;;;;;;4.00;2.10;;;8.10;1.00;;;;;;5070286;28;20783;-58
2021/04/17 08:24:38;;;;;;;2.73;2.13;;;8.10;1.00;;;;;;5077059;28;20847;-57
2021/04/17 08:27:05;;;;;;;2.70;1.63;;;8.10;1.00;;;;;;5069609;28;20528;-57
2021/04/17 08:29:47;;;;;;;2.70;2.13;;;8.20;1.00;;;;;;5075924;28;20289;-60
2021/04/17 08:32:32;;;;;;;4.40;2.87;;;8.20;1.00;;;;;;5090268;28;20789;-58
2021/04/17 08:35:00;;;;;;;2.20;1.93;;;8.20;1.00;;;;;;5086504;28;20438;-57
2021/04/17 08:37:26;;;;;;;4.17;1.70;;;8.30;1.00;;;;;;5069528;28;20815;-58
2021/04/17 08:39:54;;;;;;;4.60;2.33;;;8.40;1.00;;;;;;5069746;28;20984;-57
2021/04/17 08:42:39;;;;;;;3.80;2.40;;;8.40;1.00;;;;;;5068807;28;20456;-56
2021/04/17 08:45:10;;;;;;;5.53;2.27;;;8.10;1.00;;;;;;5069419;28;20772;-58
2021/04/17 08:47:49;;;;;;;3.23;2.13;;;8.30;1.00;;;;;;5069794;28;20445;-58
2021/04/17 08:50:36;;;;;;;2.27;2.07;;;8.40;1.00;;;;;;5069772;28;20473;-59
2021/04/17 08:53:04;;;;;;;4.63;2.33;;;8.50;1.00;;;;;;5068856;28;20844;-60
2021/04/17 08:55:36;;;;;;;3.50;2.30;;;8.50;1.00;;;;;;5066525;28;20950;-60
2021/04/17 08:58:20;;;;;;;3.70;2.20;;;8.40;1.00;;;;;;5072693;28;20436;-59
2021/04/17 09:00:52;;;;;;;2.40;2.20;;;8.60;1.00;;;;;;5073471;28;20957;-59
2021/04/17 09:03:47;;;;;;;2.80;2.23;;;9.30;1.00;;;;;;5068284;28;20968;-59
2021/04/17 09:06:25;;;;;;;6.00;2.70;;;8.80;1.00;;;;;;5068380;28;20496;-58
2021/04/17 09:09:15;;;;;;;3.87;2.70;;;8.80;1.00;;;;;;5071714;28;20484;-59
2021/04/17 09:11:42;;;;;;;4.10;2.50;;;8.80;1.00;;;;;;5073503;28;20425;-59
2021/04/17 09:14:27;;;;;;;3.57;2.30;;;9.00;1.00;;;;;;5075308;28;20429;-60
2021/04/17 09:16:53;;;;;;;3.67;3.00;;;9.20;1.00;;;;;;5071992;28;20433;-60
2021/04/17 09:19:38;;;;;;;5.40;2.80;;;9.30;1.00;;;;;;5073304;28;20987;-57
2021/04/17 09:22:22;;;;;;;8.23;3.27;;;9.40;1.00;;;;;;5071643;28;20886;-58
2021/04/17 09:24:48;;;;;;;3.30;3.00;;;9.50;1.00;;;;;;5070577;28;20503;-58
2021/04/17 09:27:35;;;;;;;6.20;2.70;;;9.50;1.00;;;;;;5072599;28;20446;-59
2021/04/17 09:30:17;;;;;;;3.63;3.00;;;9.40;1.00;;;;;;5072029;28;20289;-57
2021/04/17 09:32:55;;;;;;;4.00;3.03;;;9.40;1.00;;;;;;5071984;28;20515;-59
2021/04/17 09:35:21;;;;;;;2.73;2.53;;;9.20;1.00;;;;;;5070223;28;20441;-58
2021/04/17 09:37:57;;;;;;;4.63;2.93;;;9.00;1.00;;;;;;5067329;28;20866;-60
2021/04/17 09:40:34;;;;;;;2.90;2.60;;;9.20;1.00;;;;;;5071491;28;20442;-59
2021/04/17 09:43:00;;;;;;;7.43;3.10;;;9.40;1.00;;;;;;5069740;28;20454;-60
2021/04/17 09:45:35;;;;;;;7.23;3.60;;;9.60;1.00;;;;;;5073096;28;20442;-59
2021/04/17 09:48:03;;;;;;;4.97;2.80;;;9.80;1.00;;;;;;5071361;28;20932;-59
2021/04/17 09:50:31;;;;;;;4.43;2.60;;;9.50;1.00;;;;;;5072439;28;20556;-60
2021/04/17 09:53:10;;;;;;;3.80;2.80;;;9.50;1.00;;;;;;5071502;28;20519;-60
2021/04/17 09:55:54;;;;;;;2.70;2.43;;;9.30;1.00;;;;;;5072884;28;20433;-60
2021/04/17 09:58:31;;;;;;;2.83;2.63;;;9.30;1.00;;;;;;5070556;28;20442;-60
2021/04/17 10:01:11;;;;;;;2.70;2.50;;;9.30;1.00;;;;;;5070520;28;20462;-59
2021/04/17 10:03:38;;;;;;;2.93;2.73;;;9.50;1.00;;;;;;5071591;28;21013;-59
2021/04/17 10:06:22;;;;;;;3.60;3.20;;;9.40;1.00;;;;;;5073882;28;20441;-60
2021/04/17 10:08:47;;;;;;;4.97;2.70;;;9.30;1.00;;;;;;5070849;28;20457;-60
2021/04/17 10:11:23;;;;;;;3.33;2.90;;;9.50;1.00;;;;;;5073957;28;20446;-58
2021/04/17 10:13:49;;;;;;;4.27;3.10;;;9.20;1.00;;;;;;5071136;28;20180;-59
2021/04/17 10:16:23;;;;;;;9.33;3.63;;;9.50;1.00;;;;;;5070877;28;20516;-59
2021/04/17 10:18:49;;;;;;;5.47;3.30;;;9.50;1.00;;;;;;5072466;28;20582;-60
2021/04/17 10:21:14;;;;;;;3.70;3.07;;;9.50;1.00;;;;;;5072393;28;20433;-59
2021/04/17 10:23:40;;;;;;;3.57;2.97;;;9.80;1.00;;;;;;5068380;28;20447;-59
2021/04/17 10:26:08;;;;;;;3.70;3.00;;;9.80;1.00;;;;;;5072140;28;20536;-58
2021/04/17 10:28:35;;;;;;;3.60;3.00;;;9.90;1.00;;;;;;5069044;28;20573;-59
2021/04/17 10:31:19;;;;;;;4.90;3.10;;;10.00;1.00;;;;;;5070991;28;20440;-59
2021/04/17 10:33:47;;;;;;;4.63;2.43;;;9.70;1.00;;;;;;5071496;28;20449;-59
2021/04/17 10:36:21;;;;;;;6.50;3.20;;;9.60;1.00;;;;;;5071254;28;20438;-57
2021/04/17 10:38:50;;;;;;;3.97;3.00;;;9.50;1.00;;;;;;5071925;28;20437;-58
2021/04/17 10:41:27;;;;;;;3.50;2.90;;;9.70;1.00;;;;;;5071642;28;20447;-56
2021/04/17 10:44:15;;;;;;;6.17;3.20;;;9.80;1.00;;;;;;5071830;28;20442;-59
2021/04/17 10:46:44;;;;;;;3.23;2.70;;;9.70;1.00;;;;;;5072066;28;20454;-56
2021/04/17 10:49:24;;;;;;;4.43;3.37;;;9.60;1.00;;;;;;5071087;28;20454;-58
2021/04/17 10:51:49;;;;;;;6.47;3.33;;;9.70;1.00;;;;;;5071855;28;20529;-57
2021/04/17 10:54:15;;;;;;;5.93;3.73;;;9.70;1.00;;;;;;5071003;28;20525;-58
2021/04/17 10:56:55;;;;;;;7.37;3.03;;;9.50;1.00;;;;;;5070789;28;20180;-59
2021/04/17 10:59:20;;;;;;;4.63;3.00;;;9.50;1.00;;;;;;5068950;28;20276;-58
2021/04/17 11:01:46;;;;;;;5.07;4.20;;;9.50;1.00;;;;;;5063672;28;20625;-58
2021/04/17 11:04:12;;;;;;;3.53;3.00;;;9.60;1.00;;;;;;5065635;28;20205;-59
2021/04/17 11:06:40;;;;;;;4.30;2.70;;;9.80;1.00;;;;;;5070962;28;20259;-58
2021/04/17 11:09:14;;;;;;;3.40;3.10;;;10.00;1.00;;;;;;5068835;28;20284;-57
2021/04/17 11:12:00;;;;;;;3.90;3.50;;;10.00;1.00;;;;;;5068813;28;20438;-58
2021/04/17 11:14:27;;;;;;;4.47;3.47;;;10.00;1.00;;;;;;5071575;28;20495;-57
2021/04/17 11:16:54;;;;;;;4.70;3.10;;;10.00;1.00;;;;;;5071626;28;20430;-58
2021/04/17 11:19:23;;;;;;;6.50;2.80;;;10.10;1.00;;;;;;5070465;28;20947;-57
2021/04/17 11:22:24;;;;;;;7.90;3.17;;;10.10;1.00;;;;;;5070115;28;20803;-58
2021/04/17 11:24:59;;;;;;;3.47;3.13;;;10.10;1.00;;;;;;5070386;28;20935;-58
2021/04/17 11:27:30;;;;;;;6.00;3.70;;;10.20;1.00;;;;;;5070938;28;20467;-59
2021/04/17 11:29:55;;;;;;;5.50;3.30;;;10.30;1.00;;;;;;5070838;28;20960;-59
2021/04/17 11:32:21;;;;;;;5.20;3.27;;;10.40;1.00;;;;;;5069932;28;20625;-58
2021/04/17 11:34:48;;;;;;;5.33;2.97;;;10.50;1.00;;;;;;5071193;28;20521;-56
2021/04/17 11:37:18;;;;;;;6.50;3.80;;;10.50;1.00;;;;;;5070306;28;20181;-58
2021/04/17 11:39:44;;;;;;;5.50;3.80;;;10.50;1.00;;;;;;5069446;28;20492;-56
2021/04/17 11:42:16;;;;;;;5.07;3.50;;;10.80;1.00;;;;;;5069100;28;20443;-57
2021/04/17 11:44:46;;;;;;;2.97;2.70;;;11.00;1.00;;;;;;5070940;28;20234;-56
2021/04/17 11:47:11;;;;;;;5.93;3.50;;;11.10;1.00;;;;;;5071377;28;20898;-57
2021/04/17 11:49:37;;;;;;;4.23;2.87;;;11.00;1.00;;;;;;5070370;28;20464;-56
2021/04/17 11:52:03;;;;;;;5.70;2.97;;;10.90;1.00;;;;;;5068044;28;20237;-57
2021/04/17 11:54:29;;;;;;;5.47;3.27;;;11.00;1.00;;;;;;5070506;28;20440;-57
2021/04/17 11:56:54;;;;;;;4.47;3.40;;;10.90;1.00;;;;;;5070660;28;20181;-58
2021/04/17 11:59:20;;;;;;;5.47;4.13;;;10.90;1.00;;;;;;5071095;28;20681;-58
2021/04/17 12:01:45;;;;;;;5.50;3.60;;;10.80;1.00;;;;;;5070335;28;20200;-56
2021/04/17 12:04:12;;;;;;;5.13;3.60;;;10.70;1.00;;;;;;5070849;28;20193;-58
2021/04/17 12:06:37;;;;;;;6.53;3.20;;;10.80;1.00;;;;;;5069485;28;20194;-57
2021/04/17 12:09:04;;;;;;;3.83;3.50;;;11.60;1.00;;;;;;5070445;28;20991;-59
2021/04/17 12:11:30;;;;;;;6.07;3.37;;;10.90;1.00;;;;;;5069251;28;20262;-57
2021/04/17 12:13:55;;;;;;;6.30;2.87;;;10.90;1.00;;;;;;5071338;28;20484;-58
2021/04/17 12:16:21;;;;;;;5.90;4.00;;;11.20;1.00;;;;;;5078921;28;20209;-59
2021/04/17 12:18:46;;;;;;;5.73;3.70;;;11.70;1.00;;;;;;5068942;28;20183;-58
2021/04/17 12:21:12;;;;;;;5.50;3.80;;;11.70;1.00;;;;;;5069596;28;20276;-58
2021/04/17 12:23:38;;;;;;;7.80;4.00;;;11.90;1.00;;;;;;5070814;28;20265;-57
2021/04/17 12:26:04;;;;;;;5.30;3.30;;;11.80;1.00;;;;;;5074319;28;20470;-59
2021/04/17 12:28:29;;;;;;;4.40;3.30;;;11.80;1.00;;;;;;5069718;28;20548;-57
2021/04/17 12:30:57;;;;;;;4.03;3.43;;;11.90;1.00;;;;;;5070154;28;20211;-56
2021/04/17 12:33:24;;;;;;;4.90;3.60;;;11.80;1.00;;;;;;5069867;28;20663;-58
2021/04/17 12:35:49;;;;;;;5.13;3.97;;;12.10;1.00;;;;;;5069703;28;20969;-57
2021/04/17 12:38:15;;;;;;;4.37;3.70;;;12.00;1.00;;;;;;5070482;28;20464;-57
2021/04/17 12:40:41;;;;;;;5.67;4.00;;;12.00;1.00;;;;;;5070460;28;20194;-57
2021/04/17 12:43:08;;;;;;;3.80;3.30;;;11.80;1.00;;;;;;5069918;28;20180;-59
2021/04/17 12:45:35;;;;;;;4.53;3.23;;;11.60;1.00;;;;;;5074318;28;20511;-58
2021/04/17 12:48:01;;;;;;;5.40;3.40;;;11.70;1.00;;;;;;5086955;28;20453;-58
2021/04/17 12:50:27;;;;;;;5.00;4.07;;;11.80;1.00;;;;;;5083122;28;20961;-59
2021/04/17 12:52:53;;;;;;;9.10;5.00;;;12.10;1.00;;;;;;5070163;28;20459;-60
2021/04/17 12:55:19;;;;;;;6.00;4.20;;;12.40;1.00;;;;;;5069623;28;20189;-57
2021/04/17 12:57:44;;;;;;;4.50;3.67;;;12.40;1.00;;;;;;5068922;28;20353;-58
2021/04/17 13:00:10;;;;;;;4.67;3.53;;;12.30;1.00;;;;;;5069667;28;20191;-58
2021/04/17 13:02:36;;;;;;;5.30;3.60;;;12.40;1.00;;;;;;5070327;28;20601;-57
2021/04/17 13:05:02;;;;;;;7.87;5.40;;;12.40;1.00;;;;;;5069949;28;20441;-57
2021/04/17 13:07:29;;;;;;;5.20;4.23;;;12.40;1.00;;;;;;5069826;28;20538;-58
2021/04/17 13:09:54;;;;;;;3.67;3.30;;;12.30;1.00;;;;;;5070147;28;20465;-57
2021/04/17 13:12:20;;;;;;;4.80;3.23;;;12.30;1.00;;;;;;5069600;28;21058;-59